Time;durP1;ratioP1;P1;durP2;ratioP2;P2;SDS_P1;SDS_P2;PMS_P1;PMS_P2;Temp;Humidity;BMP_temperature;BMP_pressure;BME280_temperature;BME280_humidity;BME280_pressure;Samples;Min_cycle;Max_cycle;Signal;HPM_P1;HPM_P2
2021/04/19 00:01:39;;;;;;;57.80;49.55;;;;;;;8.93;71.09;100822.95;121997;1155;22540;-72
2021/04/19 00:04:09;;;;;;;65.58;49.45;;;;;;;8.93;71.02;100812.41;121249;1158;22553;-72
2021/04/19 00:06:40;;;;;;;60.60;48.50;;;;;;;8.96;71.11;100809.45;121560;1158;22598;-72
2021/04/19 00:09:08;;;;;;;58.50;47.68;;;;;;;8.97;70.95;100807.67;121497;1158;25505;-73
2021/04/19 00:11:37;;;;;;;58.83;49.23;;;;;;;8.95;70.94;100800.72;121454;1158;22552;-72
2021/04/19 00:14:06;;;;;;;60.30;48.63;;;;;;;8.93;70.67;100800.06;121476;1155;22549;-72
2021/04/19 00:16:34;;;;;;;62.03;47.50;;;;;;;8.91;70.68;100807.27;121525;1159;24458;-72
2021/04/19 00:19:04;;;;;;;59.65;47.78;;;;;;;8.87;70.76;100799.81;121479;1159;22554;-73
2021/04/19 00:21:33;;;;;;;55.78;47.65;;;;;;;8.85;70.45;100804.38;121707;1156;22602;-73
2021/04/19 00:24:01;;;;;;;57.63;48.18;;;;;;;8.83;70.70;100803.69;121970;1155;22548;-73
2021/04/19 00:26:29;;;;;;;58.85;46.20;;;;;;;8.83;70.88;100807.18;122036;1155;22685;-73
2021/04/19 00:28:57;;;;;;;62.18;47.43;;;;;;;8.83;70.73;100799.27;121639;1155;22600;-72
2021/04/19 00:31:26;;;;;;;58.75;48.33;;;;;;;8.86;70.97;100801.62;121989;1156;22636;-72
2021/04/19 00:33:54;;;;;;;57.33;46.75;;;;;;;8.87;71.03;100802.45;121689;1155;22552;-73
2021/04/19 00:36:22;;;;;;;54.33;46.90;;;;;;;8.89;70.88;100798.66;122380;1152;24803;-72
2021/04/19 00:38:50;;;;;;;58.48;45.85;;;;;;;8.90;70.95;100788.98;122148;1154;22532;-72
2021/04/19 00:41:19;;;;;;;53.78;43.20;;;;;;;8.90;70.71;100789.80;122271;1154;22538;-72
2021/04/19 00:43:47;;;;;;;58.33;43.90;;;;;;;8.92;70.71;100797.55;122205;1152;22531;-72
2021/04/19 00:46:16;;;;;;;55.93;46.78;;;;;;;8.92;70.88;100792.28;122199;1152;22528;-72
2021/04/19 00:48:45;;;;;;;53.78;45.58;;;;;;;8.90;70.70;100788.98;122131;1152;22534;-72
2021/04/19 00:51:14;;;;;;;57.70;47.77;;;;;;;8.90;70.68;100796.89;122210;1152;22530;-72
2021/04/19 00:53:43;;;;;;;54.20;46.23;;;;;;;8.89;70.83;100793.39;122156;1154;22537;-72
2021/04/19 00:56:12;;;;;;;54.25;46.45;;;;;;;8.91;70.80;100790.63;122227;1152;24691;-72
2021/04/19 00:58:42;;;;;;;58.10;47.18;;;;;;;8.93;70.83;100789.52;122181;1152;22543;-71
2021/04/19 01:01:12;;;;;;;53.03;43.35;;;;;;;8.94;70.83;100796.44;122230;1153;22429;-71
2021/04/19 01:03:42;;;;;;;55.33;44.43;;;;;;;8.94;70.65;100787.70;122401;1152;22544;-71
2021/04/19 01:06:11;;;;;;;53.23;45.13;;;;;;;8.93;70.65;100778.98;122294;1152;22537;-72
2021/04/19 01:08:40;;;;;;;54.88;44.28;;;;;;;8.89;70.57;100771.49;122220;1151;22527;-72
2021/04/19 01:11:10;;;;;;;53.15;45.83;;;;;;;8.82;70.42;100762.52;122355;1152;22599;-72
2021/04/19 01:13:38;;;;;;;49.85;44.13;;;;;;;8.77;70.41;100768.23;122221;1152;22517;-72
2021/04/19 01:16:07;;;;;;;48.63;41.75;;;;;;;8.73;70.96;100774.78;122232;1152;22515;-73
2021/04/19 01:18:38;;;;;;;57.47;43.60;;;;;;;8.72;70.68;100771.29;122095;1153;22515;-72
2021/04/19 01:21:08;;;;;;;47.23;41.50;;;;;;;8.74;70.91;100775.60;122232;1152;23687;-72
2021/04/19 01:23:37;;;;;;;49.43;41.15;;;;;;;8.77;70.95;100767.41;122428;1153;25161;-73
2021/04/19 01:26:06;;;;;;;48.05;39.35;;;;;;;8.80;71.04;100769.76;122212;1151;22511;-73
2021/04/19 01:28:53;;;;;;;44.10;39.00;;;;;;;8.79;70.96;100766.27;122267;1153;22614;-73
2021/04/19 01:31:23;;;;;;;43.78;36.70;;;;;;;8.81;70.92;100769.59;122483;1152;22598;-73
2021/04/19 01:33:55;;;;;;;44.10;38.75;;;;;;;8.81;70.79;100772.23;122189;1153;22515;-73
2021/04/19 01:36:24;;;;;;;41.93;37.05;;;;;;;8.85;70.96;100772.77;122185;1153;23313;-73
2021/04/19 01:38:53;;;;;;;45.65;39.45;;;;;;;8.88;70.94;100775.94;122154;1152;22608;-73
2021/04/19 01:41:22;;;;;;;44.55;38.23;;;;;;;8.90;70.91;100774.00;122090;1153;22621;-73
2021/04/19 01:43:50;;;;;;;44.80;38.57;;;;;;;8.92;70.94;100765.93;122180;1152;22525;-74
2021/04/19 01:46:18;;;;;;;45.60;37.80;;;;;;;8.93;70.67;100773.70;122206;1152;22525;-74
2021/04/19 01:48:48;;;;;;;44.60;39.47;;;;;;;8.93;70.64;100768.44;122245;1151;22530;-73
2021/04/19 01:51:16;;;;;;;45.48;39.40;;;;;;;8.92;70.53;100763.30;122202;1152;22518;-73
2021/04/19 01:53:45;;;;;;;48.65;39.73;;;;;;;8.91;70.50;100766.92;122200;1152;22546;-73
2021/04/19 01:56:13;;;;;;;49.73;40.55;;;;;;;8.90;70.62;100767.91;122446;1150;22517;-72
2021/04/19 01:58:44;;;;;;;45.00;38.30;;;;;;;8.91;70.80;100769.55;122419;1152;22526;-73
2021/04/19 02:01:13;;;;;;;45.68;38.75;;;;;;;8.91;70.68;100757.20;122446;1152;22704;-73
2021/04/19 02:04:00;;;;;;;47.85;40.38;;;;;;;8.92;70.62;100755.39;122130;1152;22540;-73
2021/04/19 02:06:51;;;;;;;43.90;38.10;;;;;;;8.89;70.73;100743.34;122462;1152;22877;-72
2021/04/19 02:09:28;;;;;;;46.38;39.00;;;;;;;8.89;70.76;100734.61;122422;1152;22546;-73
2021/04/19 02:12:08;;;;;;;48.00;39.00;;;;;;;8.88;70.92;100722.42;122125;1152;22519;-73
2021/04/19 02:15:06;;;;;;;47.40;39.47;;;;;;;8.88;70.75;100717.15;122378;1153;22509;-73
2021/04/19 02:18:18;;;;;;;47.03;40.80;;;;;;;8.85;70.79;100696.37;122133;1155;22527;-73
2021/04/19 02:20:55;;;;;;;51.47;43.00;;;;;;;8.82;70.78;100672.95;122226;1152;24755;-72
2021/04/19 02:23:49;;;;;;;50.50;42.18;;;;;;;8.81;70.86;100677.39;122422;1152;24786;-72
2021/04/19 02:26:28;;;;;;;50.78;43.20;;;;;;;8.79;70.78;100667.98;122354;1151;22525;-72
2021/04/19 02:29:03;;;;;;;54.23;47.03;;;;;;;8.79;71.02;100649.53;122210;1151;22513;-72
2021/04/19 02:31:41;;;;;;;52.50;43.60;;;;;;;8.77;70.94;100641.80;122362;1152;22533;-72
2021/04/19 02:34:16;;;;;;;53.80;42.10;;;;;;;8.73;71.20;100645.72;122209;1154;22529;-73
2021/04/19 02:36:50;;;;;;;52.10;42.23;;;;;;;8.70;71.03;100652.09;122218;1152;25308;-72
2021/04/19 02:39:19;;;;;;;51.15;42.05;;;;;;;8.65;70.94;100645.61;122194;1151;24690;-72
2021/04/19 02:41:53;;;;;;;51.33;42.33;;;;;;;8.62;71.00;100659.89;122199;1152;24920;-72
2021/04/19 02:44:25;;;;;;;52.88;43.00;;;;;;;8.60;71.03;100671.58;122327;1151;22516;-72
2021/04/19 02:47:01;;;;;;;51.90;43.33;;;;;;;8.57;71.08;100677.95;122255;1152;22549;-72
2021/04/19 02:49:34;;;;;;;55.13;42.80;;;;;;;8.58;71.08;100670.88;122139;1153;22520;-72
2021/04/19 02:52:06;;;;;;;51.65;42.18;;;;;;;8.56;71.21;100673.64;122186;1152;23307;-73
2021/04/19 02:54:40;;;;;;;48.90;41.50;;;;;;;8.54;71.28;100665.08;122321;1152;22629;-73
2021/04/19 02:57:28;;;;;;;53.25;41.85;;;;;;;8.54;71.15;100656.36;122373;1152;23080;-73
2021/04/19 02:59:58;;;;;;;51.40;41.50;;;;;;;8.52;71.28;100667.02;122233;1155;22538;-73
2021/04/19 03:02:30;;;;;;;52.00;44.38;;;;;;;8.53;71.38;100655.53;121718;1155;22921;-74
2021/04/19 03:05:01;;;;;;;50.08;42.80;;;;;;;8.52;71.48;100653.86;122185;1155;22545;-74
2021/04/19 03:07:35;;;;;;;;;;;;;;;8.48;71.16;100658.59;122065;1158;22568;-73
2021/04/19 03:10:11;;;;;;;51.70;42.23;;;;;;;8.46;71.75;100652.66;122083;1154;21339;-73
2021/04/19 03:12:49;;;;;;;52.40;41.98;;;;;;;8.51;71.68;100651.38;121667;1156;24758;-74
2021/04/19 03:15:27;;;;;;;53.45;43.38;;;;;;;8.49;71.41;100660.23;121635;1156;23499;-74
2021/04/19 03:18:12;;;;;;;47.80;41.53;;;;;;;8.48;71.50;100663.85;121653;1155;25201;-73
2021/04/19 03:21:12;;;;;;;47.33;40.48;;;;;;;8.47;71.59;100654.30;122034;1156;22545;-72
2021/04/19 03:24:08;;;;;;;47.95;40.03;;;;;;;8.46;71.55;100649.17;121961;1149;22607;-73
2021/04/19 03:26:52;;;;;;;50.38;42.08;;;;;;;8.48;71.75;100668.30;122057;1155;22541;-73
2021/04/19 03:29:22;;;;;;;54.48;42.18;;;;;;;8.52;71.62;100679.36;121757;1155;22552;-72
2021/04/19 03:32:08;;;;;;;44.95;39.18;;;;;;;8.54;71.56;100674.79;122048;1152;22530;-72
2021/04/19 03:34:43;;;;;;;50.33;40.50;;;;;;;8.56;71.46;100678.91;122223;1152;24374;-72
2021/04/19 03:37:27;;;;;;;;;;;;;;;8.54;71.41;100683.52;122166;1155;22517;-72
2021/04/19 03:40:09;;;;;;;48.83;41.77;;;;;;;8.48;71.41;100695.45;122219;1151;21336;-72
2021/04/19 03:42:41;;;;;;;48.83;41.75;;;;;;;8.49;71.52;100697.09;122260;1152;25274;-72
2021/04/19 03:45:16;;;;;;;50.08;41.35;;;;;;;8.51;71.71;100696.14;122353;1152;22523;-72
2021/04/19 03:48:11;;;;;;;47.45;40.65;;;;;;;8.56;71.76;100694.71;122399;1153;22538;-73
2021/04/19 03:50:59;;;;;;;48.73;40.33;;;;;;;8.59;71.67;100693.59;122316;1153;22538;-73
2021/04/19 03:53:30;;;;;;;44.00;38.77;;;;;;;8.63;71.75;100693.17;122252;1152;22588;-72
2021/04/19 03:56:01;;;;;;;49.70;41.33;;;;;;;8.64;71.55;100686.92;122217;1152;22527;-72
2021/04/19 03:58:34;;;;;;;50.28;40.05;;;;;;;8.68;71.56;100682.19;122292;1152;22527;-71
2021/04/19 04:01:10;;;;;;;44.58;37.78;;;;;;;8.70;71.70;100688.15;122343;1152;22580;-72
2021/04/19 04:03:48;;;;;;;62.98;38.83;;;;;;;8.71;71.55;100687.16;122359;1152;24419;-72
2021/04/19 04:06:25;;;;;;;44.28;39.40;;;;;;;8.72;71.33;100687.00;122355;1151;23005;-72
2021/04/19 04:08:55;;;;;;;43.93;39.00;;;;;;;8.72;71.54;100687.00;122252;1152;22539;-72
2021/04/19 04:11:26;;;;;;;46.40;40.85;;;;;;;8.72;71.45;100691.45;122254;1153;22847;-72
2021/04/19 04:14:13;;;;;;;49.23;40.30;;;;;;;8.69;71.49;100695.20;122474;1152;22928;-73
2021/04/19 04:16:44;;;;;;;48.08;40.28;;;;;;;8.72;71.47;100702.80;122212;1152;22520;-73
2021/04/19 04:19:16;;;;;;;43.93;37.45;;;;;;;8.74;71.47;100701.85;122240;1152;22581;-72
2021/04/19 04:22:04;;;;;;;48.07;39.27;;;;;;;8.76;71.42;100702.52;122422;1152;22585;-72
2021/04/19 04:24:40;;;;;;;45.80;38.13;;;;;;;8.78;71.50;100696.13;122199;1152;22534;-72
2021/04/19 04:27:10;;;;;;;44.93;38.53;;;;;;;8.81;71.49;100700.28;122230;1152;23392;-72
2021/04/19 04:29:40;;;;;;;45.55;37.50;;;;;;;8.82;71.59;100694.02;122160;1152;22517;-72
2021/04/19 04:32:35;;;;;;;45.85;37.88;;;;;;;8.84;71.57;100699.98;122102;1152;22547;-72
2021/04/19 04:35:16;;;;;;;41.88;37.28;;;;;;;8.86;71.55;100687.48;122137;1152;22643;-72
2021/04/19 04:37:46;;;;;;;47.28;40.85;;;;;;;8.88;71.66;100690.80;122211;1152;24502;-72
2021/04/19 04:40:21;;;;;;;48.13;39.53;;;;;;;8.89;71.45;100692.45;122395;1153;23177;-73
2021/04/19 04:42:55;;;;;;;53.95;40.70;;;;;;;8.92;71.59;100694.80;122388;1152;23601;-73
2021/04/19 04:45:24;;;;;;;47.68;39.73;;;;;;;8.95;71.56;100691.86;122470;1153;22592;-72
2021/04/19 04:48:00;;;;;;;44.53;39.48;;;;;;;8.98;71.59;100696.02;122362;1152;23858;-72
2021/04/19 04:50:45;;;;;;;46.68;40.48;;;;;;;9.01;72.37;100690.45;122366;1152;22528;-72
2021/04/19 04:53:24;;;;;;;48.08;41.50;;;;;;;9.03;71.47;100688.47;122149;1154;22532;-72
2021/04/19 04:55:55;;;;;;;48.30;39.08;;;;;;;9.05;71.64;100681.26;122426;1153;22603;-72
2021/04/19 04:58:24;;;;;;;49.28;41.88;;;;;;;9.07;71.30;100687.22;122402;1152;22521;-71
2021/04/19 05:00:54;;;;;;;53.68;45.15;;;;;;;9.09;71.48;100687.88;122192;1152;22548;-72
2021/04/19 05:03:24;;;;;;;140.58;104.03;;;;;;;9.09;71.13;100683.44;122373;1152;22622;-72
2021/04/19 05:05:53;;;;;;;88.73;71.27;;;;;;;9.10;71.33;100681.66;122439;1152;23079;-71
2021/04/19 05:08:25;;;;;;;64.73;55.15;;;;;;;9.14;71.48;100683.00;122406;1152;22524;-72
2021/04/19 05:10:57;;;;;;;60.93;54.30;;;;;;;9.18;71.57;100682.54;122369;1153;22537;-72
2021/04/19 05:13:25;;;;;;;;;;;;;;;9.24;72.04;100686.39;122415;1154;22911;-73
2021/04/19 05:15:54;;;;;;;53.30;47.30;;;;;;;9.31;71.70;100676.89;122414;1152;22002;-73
2021/04/19 05:18:22;;;;;;;65.40;55.23;;;;;;;9.44;71.80;100681.78;122358;1152;24435;-73
2021/04/19 05:20:51;;;;;;;61.10;54.67;;;;;;;9.56;71.65;100683.21;122389;1152;22531;-72
2021/04/19 05:23:19;;;;;;;50.65;45.10;;;;;;;9.65;71.51;100677.00;122188;1153;22519;-73
2021/04/19 05:25:48;;;;;;;48.53;43.45;;;;;;;9.77;71.18;100676.77;122177;1152;23052;-72
2021/04/19 05:28:20;;;;;;;46.20;41.25;;;;;;;9.82;71.00;100672.66;122172;1152;24417;-73
2021/04/19 05:30:50;;;;;;;48.20;42.30;;;;;;;9.87;70.80;100674.85;122372;1152;24767;-72
2021/04/19 05:33:18;;;;;;;50.13;44.08;;;;;;;9.90;70.57;100667.45;122417;1151;24671;-73
2021/04/19 05:35:47;;;;;;;50.95;45.50;;;;;;;9.95;70.18;100677.53;122370;1152;23322;-72
2021/04/19 05:38:15;;;;;;;55.60;46.00;;;;;;;9.96;69.99;100673.08;122395;1152;22524;-74
2021/04/19 05:40:45;;;;;;;55.73;45.20;;;;;;;9.98;70.05;100679.03;122450;1152;24760;-72
2021/04/19 05:43:13;;;;;;;49.43;42.10;;;;;;;9.98;69.86;100668.48;122451;1152;22538;-72
2021/04/19 05:45:43;;;;;;;45.90;40.63;;;;;;;10.03;70.11;100674.10;122388;1152;22521;-73
2021/04/19 05:48:11;;;;;;;50.25;42.20;;;;;;;10.05;69.95;100680.06;122000;1156;22647;-72
2021/04/19 05:50:42;;;;;;;50.33;41.45;;;;;;;10.09;69.81;100684.04;121990;1155;23276;-72
2021/04/19 05:53:12;;;;;;;49.55;43.80;;;;;;;10.10;69.68;100677.80;122132;1156;22551;-72
2021/04/19 05:55:42;;;;;;;49.53;41.70;;;;;;;10.09;69.90;100676.94;121992;1155;22544;-72
2021/04/19 05:58:29;;;;;;;49.00;43.67;;;;;;;10.11;69.84;100679.44;122064;1155;23958;-72
2021/04/19 06:01:17;;;;;;;45.75;39.70;;;;;;;10.14;69.93;100687.88;121506;1156;22564;-72
2021/04/19 06:04:11;;;;;;;45.78;38.75;;;;;;;10.21;70.02;100674.05;121494;1158;23483;-73
2021/04/19 06:07:17;;;;;;;43.70;38.98;;;;;;;10.26;69.88;100677.91;121627;1158;22613;-73
2021/04/19 06:10:15;;;;;;;43.93;38.93;;;;;;;10.33;69.72;100676.30;121333;1155;23009;-74
2021/04/19 06:12:55;;;;;;;43.57;38.63;;;;;;;10.42;69.94;100677.14;121656;1154;23050;-72
2021/04/19 06:15:25;;;;;;;42.23;37.60;;;;;;;10.60;70.34;100683.17;122031;1155;22543;-73
2021/04/19 06:17:59;;;;;;;43.78;38.35;;;;;;;10.84;70.10;100679.77;121679;1155;22550;-74
2021/04/19 06:20:29;;;;;;;44.27;36.70;;;;;;;11.07;69.96;100690.56;122066;1155;22748;-75
2021/04/19 06:23:03;;;;;;;44.80;39.23;;;;;;;11.43;70.46;100695.56;121556;1158;22561;-75
2021/04/19 06:25:32;;;;;;;47.05;39.20;;;;;;;11.96;70.81;100685.44;121789;1155;22536;-75
2021/04/19 06:28:09;;;;;;;42.55;37.03;;;;;;;12.59;70.32;100689.05;122022;1155;22532;-74
2021/04/19 06:30:43;;;;;;;43.43;38.80;;;;;;;13.25;68.89;100689.54;122013;1155;22549;-76
2021/04/19 06:33:20;;;;;;;45.93;41.08;;;;;;;13.83;67.03;100698.70;122105;1155;22543;-75
2021/04/19 06:35:49;;;;;;;45.88;41.00;;;;;;;14.35;65.34;100687.17;122017;1155;22776;-74
2021/04/19 06:38:18;;;;;;;47.45;41.18;;;;;;;14.75;63.88;100688.52;121991;1155;22546;-74
2021/04/19 06:40:46;;;;;;;46.78;41.68;;;;;;;15.14;62.32;100695.30;122043;1152;22636;-74
2021/04/19 06:43:15;;;;;;;45.28;40.70;;;;;;;15.45;61.30;100692.31;122211;1152;22529;-75
2021/04/19 06:45:44;;;;;;;44.23;39.53;;;;;;;15.82;60.42;100689.56;122260;1152;22549;-74
2021/04/19 06:48:13;;;;;;;45.75;40.00;;;;;;;16.17;59.01;100695.75;122021;1155;22566;-74
2021/04/19 06:50:41;;;;;;;43.65;39.18;;;;;;;16.45;58.25;100691.17;121954;1155;22542;-74
2021/04/19 06:53:10;;;;;;;42.40;37.90;;;;;;;16.76;57.56;100691.73;122007;1155;26131;-75
2021/04/19 06:55:38;;;;;;;40.58;36.33;;;;;;;17.09;56.59;100691.84;122011;1155;25076;-75
2021/04/19 06:58:08;;;;;;;42.48;37.93;;;;;;;17.40;55.67;100693.95;121959;1154;23329;-74
2021/04/19 07:00:37;;;;;;;43.35;38.48;;;;;;;17.66;54.46;100695.82;122166;1155;22543;-74
2021/04/19 07:03:06;;;;;;;38.15;33.80;;;;;;;17.93;54.29;100698.51;121987;1155;22591;-74
2021/04/19 07:05:37;;;;;;;40.93;36.60;;;;;;;18.18;53.40;100701.33;121785;1152;22561;-75
2021/04/19 07:08:26;;;;;;;41.55;35.75;;;;;;;18.43;52.82;100699.63;122218;1152;24835;-75
2021/04/19 07:11:02;;;;;;;47.45;42.90;;;;;;;18.71;52.67;100693.95;122193;1152;22536;-76
2021/04/19 07:13:32;;;;;;;46.35;41.75;;;;;;;18.96;51.39;100694.07;122388;1151;22624;-73
2021/04/19 07:16:00;;;;;;;42.78;38.25;;;;;;;19.19;50.16;100698.88;122381;1151;25167;-74
2021/04/19 07:18:29;;;;;;;40.73;36.28;;;;;;;19.41;49.92;100704.69;122370;1151;22482;-74
2021/04/19 07:20:58;;;;;;;39.83;34.15;;;;;;;19.64;49.45;100704.13;122197;1154;22630;-74
2021/04/19 07:23:26;;;;;;;41.33;34.27;;;;;;;19.79;48.65;100700.29;122344;1151;22527;-74
2021/04/19 07:25:55;;;;;;;31.68;27.48;;;;;;;19.90;48.31;100702.27;122099;1152;22541;-74
2021/04/19 07:28:28;;;;;;;23.30;20.87;;;;;;;20.10;47.88;100700.21;122174;1152;24680;-72
2021/04/19 07:31:00;;;;;;;21.83;19.68;;;;;;;20.20;46.80;100703.20;122382;1153;22520;-75
2021/04/19 07:33:34;;;;;;;22.20;20.00;;;;;;;20.28;46.65;100704.75;122189;1152;22541;-75
2021/04/19 07:36:29;;;;;;;17.50;15.73;;;;;;;20.31;46.11;100696.27;122397;1152;23434;-76
2021/04/19 07:39:01;;;;;;;19.90;17.93;;;;;;;20.32;46.10;100697.08;122187;1152;22535;-74
2021/04/19 07:41:51;;;;;;;25.63;21.48;;;;;;;20.42;45.56;100695.50;122242;1151;24680;-74
2021/04/19 07:44:45;;;;;;;25.80;23.23;;;;;;;;;;122407;1152;25647;-74
2021/04/19 07:47:42;;;;;;;18.93;16.65;;;;;;;20.59;45.11;100693.09;122194;1153;22550;-74
2021/04/19 07:50:21;;;;;;;22.30;20.17;;;;;;;20.60;44.57;100689.35;122218;1152;24513;-75
2021/04/19 07:53:07;;;;;;;19.20;17.33;;;;;;;20.53;44.77;100683.25;122225;1154;22528;-75
2021/04/19 07:55:38;;;;;;;19.98;17.98;;;;;;;20.51;44.53;100679.97;122068;1155;24699;-75
2021/04/19 07:58:27;;;;;;;20.08;18.03;;;;;;;20.57;45.37;100681.75;122041;1156;22551;-75
2021/04/19 08:01:04;;;;;;;19.40;17.23;;;;;;;20.63;44.38;100693.46;122023;1155;22549;-75
2021/04/19 08:03:40;;;;;;;20.70;18.60;;;;;;;20.60;43.66;100678.62;121714;1155;22691;-76
2021/04/19 08:06:22;;;;;;;20.63;18.53;;;;;;;20.59;44.51;100685.04;122078;1155;22546;-75
2021/04/19 08:08:50;;;;;;;24.10;21.70;;;;;;;20.52;43.98;100675.41;122147;1155;23422;-75
2021/04/19 08:11:20;;;;;;;20.73;18.78;;;;;;;20.52;44.09;100676.23;122005;1155;24038;-75
2021/04/19 08:13:48;;;;;;;21.05;19.05;;;;;;;20.66;44.65;100677.72;122039;1158;22692;-75
2021/04/19 08:16:17;;;;;;;20.43;17.75;;;;;;;20.73;43.51;100677.63;121674;1156;22571;-76
2021/04/19 08:19:00;;;;;;;18.43;16.60;;;;;;;20.53;43.96;100666.34;122107;1156;22637;-75
2021/04/19 08:21:34;;;;;;;17.78;16.13;;;;;;;20.44;44.01;100668.46;122157;1152;22539;-75
2021/04/19 08:24:14;;;;;;;18.35;16.05;;;;;;;20.62;44.35;100662.27;122262;1151;22546;-76
2021/04/19 08:26:58;;;;;;;14.17;12.63;;;;;;;20.82;43.88;100656.64;122269;1154;22529;-75
2021/04/19 08:29:45;;;;;;;15.23;13.78;;;;;;;21.01;42.87;100660.91;122173;1152;24677;-77
2021/04/19 08:32:19;;;;;;;14.45;13.05;;;;;;;21.14;42.76;100658.03;122251;1152;24703;-78
2021/04/19 08:34:50;;;;;;;15.98;14.33;;;;;;;21.14;42.34;100658.03;122257;1151;24515;-75
2021/04/19 08:37:23;;;;;;;15.25;13.68;;;;;;;21.19;42.35;100659.20;122251;1152;23320;-75
2021/04/19 08:39:56;;;;;;;16.53;13.33;;;;;;;21.26;42.08;100662.59;122233;1152;22630;-75
2021/04/19 08:42:27;;;;;;;15.15;13.15;;;;;;;21.33;41.91;100652.59;122199;1152;22550;-76
2021/04/19 08:44:59;;;;;;;14.13;12.50;;;;;;;21.45;41.94;100658.81;122141;1152;24677;-75
2021/04/19 08:47:31;;;;;;;14.58;13.15;;;;;;;21.45;41.21;100642.69;122188;1151;22541;-75
2021/04/19 08:50:07;;;;;;;14.50;13.10;;;;;;;21.37;41.34;100646.54;122215;1152;22540;-76
2021/04/19 08:52:36;;;;;;;14.73;13.10;;;;;;;21.23;41.09;100646.97;122132;1152;22523;-75
2021/04/19 08:55:10;;;;;;;14.13;12.73;;;;;;;21.07;41.73;100641.20;122142;1154;22542;-76
2021/04/19 08:57:43;;;;;;;14.85;12.85;;;;;;;21.25;42.02;100639.47;122206;1152;22531;-75
2021/04/19 09:00:23;;;;;;;14.75;13.35;;;;;;;21.38;41.90;100640.11;122184;1152;22531;-76
2021/04/19 09:02:51;;;;;;;15.58;12.93;;;;;;;21.42;41.56;100639.64;122325;1152;22576;-75
2021/04/19 09:05:24;;;;;;;13.25;11.30;;;;;;;21.55;41.26;100629.48;122147;1152;22539;-75
2021/04/19 09:08:08;;;;;;;13.70;12.23;;;;;;;21.70;41.60;100625.53;122190;1152;24421;-75
2021/04/19 09:11:01;;;;;;;15.10;13.25;;;;;;;21.92;41.06;100629.23;122223;1152;22655;-75
2021/04/19 09:13:36;;;;;;;15.98;14.48;;;;;;;22.05;41.08;100628.16;122228;1152;24433;-76
2021/04/19 09:16:19;;;;;;;14.30;12.80;;;;;;;22.24;40.65;100626.17;122322;1152;22586;-76
2021/04/19 09:19:01;;;;;;;13.43;12.15;;;;;;;22.27;39.88;100633.77;122471;1152;24683;-76
2021/04/19 09:21:47;;;;;;;14.35;12.05;;;;;;;22.07;39.94;100624.19;122464;1152;24062;-75
2021/04/19 09:24:22;;;;;;;12.95;11.70;;;;;;;22.17;40.58;100617.42;122040;1155;24707;-76
2021/04/19 09:27:01;;;;;;;14.00;12.48;;;;;;;22.25;40.31;100625.92;122025;1155;22623;-78
2021/04/19 09:29:38;;;;;;;11.45;10.25;;;;;;;22.30;39.63;100628.73;122021;1155;22546;-75
2021/04/19 09:32:19;;;;;;;13.13;11.95;;;;;;;22.42;39.46;100614.41;122066;1155;22540;-76
2021/04/19 09:34:53;;;;;;;12.63;11.40;;;;;;;22.54;39.50;100620.57;121769;1155;22543;-75
2021/04/19 09:37:52;;;;;;;12.58;11.33;;;;;;;22.67;39.48;100614.08;121764;1157;22553;-76
2021/04/19 09:40:24;;;;;;;20.13;11.78;;;;;;;22.68;39.08;100613.02;122008;1155;22549;-75
2021/04/19 09:43:10;;;;;;;14.40;11.35;;;;;;;22.38;38.95;100611.38;122215;1152;22534;-75
2021/04/19 09:45:41;;;;;;;13.20;11.80;;;;;;;21.98;39.16;100614.84;122218;1152;24677;-76
2021/04/19 09:48:40;;;;;;;;;;;;;;;21.44;38.53;100608.80;122417;1156;22640;-75
2021/04/19 09:51:22;;;;;;;13.30;11.33;;;;;;;21.08;40.72;100607.91;122321;1152;21329;-77
2021/04/19 09:54:22;;;;;;;11.05;9.88;;;;;;;21.18;41.01;100607.34;122250;1152;22535;-76
2021/04/19 09:56:57;;;;;;;10.45;9.40;;;;;;;21.56;40.97;100616.89;122206;1152;22527;-76
2021/04/19 09:59:28;;;;;;;15.05;10.70;;;;;;;21.81;39.99;100612.06;122343;1152;22911;-76
2021/04/19 10:02:03;;;;;;;11.93;10.73;;;;;;;21.84;39.59;100606.21;122303;1152;24677;-76
2021/04/19 10:04:41;;;;;;;12.33;9.58;;;;;;;21.64;39.53;100611.14;122476;1152;22540;-76
2021/04/19 10:07:11;;;;;;;13.85;12.50;;;;;;;21.34;39.63;100609.38;122507;1152;24450;-75
2021/04/19 10:09:43;;;;;;;11.30;10.30;;;;;;;20.95;39.91;100610.80;122176;1151;22548;-75
2021/04/19 10:12:15;;;;;;;11.30;9.70;;;;;;;20.47;40.40;100605.48;122279;1150;22534;-76
2021/04/19 10:14:45;;;;;;;11.15;10.05;;;;;;;20.07;41.43;100605.97;122183;1152;23016;-76
2021/04/19 10:17:21;;;;;;;16.18;10.85;;;;;;;19.95;41.85;100605.88;122365;1152;22589;-75
2021/04/19 10:19:49;;;;;;;14.47;10.50;;;;;;;19.86;42.51;100596.48;122150;1152;22527;-76
2021/04/19 10:22:19;;;;;;;12.28;10.25;;;;;;;19.82;42.17;100603.34;122226;1154;24683;-75
2021/04/19 10:24:56;;;;;;;14.15;10.75;;;;;;;19.62;42.27;100592.80;122136;1153;22525;-75
2021/04/19 10:27:30;;;;;;;13.20;12.00;;;;;;;19.64;43.25;100583.53;122288;1152;22535;-75
2021/04/19 10:30:19;;;;;;;12.10;10.35;;;;;;;19.79;42.75;100582.34;122382;1151;22547;-76
2021/04/19 10:32:48;;;;;;;17.00;10.55;;;;;;;19.97;43.29;100583.17;122275;1153;22525;-76
2021/04/19 10:35:42;;;;;;;12.63;11.40;;;;;;;20.03;42.59;100586.83;122120;1155;22538;-76
2021/04/19 10:38:14;;;;;;;12.53;11.05;;;;;;;20.07;42.86;100579.97;122175;1152;22534;-75
2021/04/19 10:40:42;;;;;;;11.90;10.08;;;;;;;20.19;42.13;100575.50;122196;1152;22738;-76
2021/04/19 10:43:13;;;;;;;11.70;10.60;;;;;;;20.25;42.10;100578.30;122413;1152;22561;-74
2021/04/19 10:45:43;;;;;;;11.73;10.50;;;;;;;20.26;41.98;100572.73;122032;1155;24687;-75
2021/04/19 10:48:22;;;;;;;13.23;11.93;;;;;;;20.28;41.82;100577.85;121662;1156;22994;-75
2021/04/19 10:50:55;;;;;;;83.90;16.00;;;;;;;20.21;41.87;100569.89;122000;1155;22661;-75
2021/04/19 10:53:40;;;;;;;13.85;10.28;;;;;;;20.09;41.73;100574.36;122014;1156;24684;-75
2021/04/19 10:56:14;;;;;;;12.00;9.80;;;;;;;19.81;41.99;100575.72;121633;1157;22661;-76
2021/04/19 10:58:44;;;;;;;11.35;9.88;;;;;;;19.56;41.96;100557.00;121599;1155;24427;-75
2021/04/19 11:01:13;;;;;;;12.40;9.90;;;;;;;19.32;42.40;100560.52;121727;1155;22539;-75
2021/04/19 11:03:43;;;;;;;12.48;9.85;;;;;;;19.21;42.67;100556.70;122017;1155;22539;-75
2021/04/19 11:06:12;;;;;;;17.83;11.17;;;;;;;19.16;43.09;100549.34;121723;1155;22546;-76
2021/04/19 11:09:02;;;;;;;214.18;29.95;;;;;;;19.11;43.02;100553.70;121576;1155;22537;-76
2021/04/19 11:11:37;;;;;;;14.75;12.53;;;;;;;19.09;43.58;100553.09;122056;1153;25105;-75
2021/04/19 11:14:21;;;;;;;24.95;13.33;;;;;;;19.00;43.69;100547.21;122135;1152;22534;-75
2021/04/19 11:17:06;;;;;;;11.38;10.00;;;;;;;18.98;43.99;100546.59;122455;1152;22851;-75
2021/04/19 11:19:43;;;;;;;12.48;8.95;;;;;;;18.89;43.86;100546.03;122295;1152;22581;-74
2021/04/19 11:22:28;;;;;;;9.45;8.15;;;;;;;18.69;43.91;100542.66;122446;1152;22623;-74
2021/04/19 11:25:26;;;;;;;9.90;8.73;;;;;;;18.56;44.27;100541.73;122411;1152;22518;-74
2021/04/19 11:28:21;;;;;;;15.13;9.28;;;;;;;18.51;44.21;100548.75;122204;1151;22529;-73
2021/04/19 11:30:52;;;;;;;9.68;7.83;;;;;;;18.44;44.27;100546.11;122216;1153;22595;-74
2021/04/19 11:33:28;;;;;;;10.15;8.68;;;;;;;18.39;44.51;100542.43;122223;1152;22534;-73
2021/04/19 11:36:05;;;;;;;11.53;9.78;;;;;;;18.27;44.21;100540.45;122153;1152;22542;-73
2021/04/19 11:38:39;;;;;;;8.18;7.20;;;;;;;18.18;44.48;100544.39;122380;1152;22589;-74
2021/04/19 11:41:13;;;;;;;9.65;7.78;;;;;;;18.21;44.71;100540.48;122247;1152;22947;-73
2021/04/19 11:43:52;;;;;;;9.10;7.68;;;;;;;18.28;44.35;100536.73;122213;1154;22534;-73